Time;durP1;ratioP1;P1;durP2;ratioP2;P2;SDS_P1;SDS_P2;PMS_P1;PMS_P2;Temp;Humidity;BMP_temperature;BMP_pressure;BME280_temperature;BME280_humidity;BME280_pressure;Samples;Min_cycle;Max_cycle;Signal;HPM_P1;HPM_P2
2022/10/09 00:02:24;;;;;;;19.37;9.03;;;8.10;99.90;;;;;;5112031;28;20237;-95
2022/10/09 00:04:54;;;;;;;13.87;8.60;;;8.00;99.90;;;;;;5116018;28;20284;-93
2022/10/09 00:07:30;;;;;;;16.50;8.13;;;8.10;99.90;;;;;;5116482;28;20221;-94
2022/10/09 00:10:02;;;;;;;17.48;9.77;;;8.00;99.90;;;;;;5116347;28;20471;-94
2022/10/09 00:12:29;;;;;;;14.47;9.20;;;8.20;99.90;;;;;;5116850;28;20212;-93
2022/10/09 00:14:57;;;;;;;13.13;8.17;;;8.10;99.90;;;;;;5115957;28;20201;-94
2022/10/09 00:17:26;;;;;;;13.40;8.33;;;8.10;99.90;;;;;;5116806;28;20201;-95
2022/10/09 00:19:52;;;;;;;15.97;8.57;;;8.10;99.90;;;;;;5116055;28;20273;-93
2022/10/09 00:22:26;;;;;;;15.13;8.63;;;8.10;99.90;;;;;;5115564;28;20229;-93
2022/10/09 00:25:01;;;;;;;19.70;9.30;;;8.10;99.90;;;;;;5104534;28;20208;-94
2022/10/09 00:27:46;;;;;;;9.73;7.63;;;8.10;99.90;;;;;;5099355;28;20200;-93
2022/10/09 00:30:13;;;;;;;12.67;7.83;;;8.10;99.90;;;;;;5099080;28;20211;-94
2022/10/09 00:32:42;;;;;;;13.07;8.80;;;8.10;99.90;;;;;;5098378;28;20185;-94
2022/10/09 00:35:12;;;;;;;13.63;9.25;;;7.90;99.90;;;;;;5098152;28;20422;-93
2022/10/09 00:37:45;;;;;;;11.90;7.80;;;7.80;99.90;;;;;;5099039;28;20288;-95
2022/10/09 00:40:16;;;;;;;15.10;8.43;;;7.80;99.90;;;;;;5099034;28;20199;-94
2022/10/09 00:42:44;;;;;;;15.57;8.53;;;7.70;99.90;;;;;;5099145;28;20255;-94
2022/10/09 00:45:19;;;;;;;18.17;8.80;;;7.70;99.90;;;;;;5098486;28;20620;-93
2022/10/09 00:47:51;;;;;;;16.47;8.33;;;7.80;99.90;;;;;;5098758;28;20195;-94
2022/10/09 00:50:24;;;;;;;13.50;7.57;;;7.80;99.90;;;;;;5098213;28;20197;-94
2022/10/09 00:52:54;;;;;;;16.53;8.23;;;7.80;99.90;;;;;;5097381;28;20205;-93
2022/10/09 00:55:34;;;;;;;10.43;7.80;;;7.80;99.90;;;;;;5098474;28;20212;-94
2022/10/09 00:58:07;;;;;;;17.60;7.90;;;7.90;99.90;;;;;;5098417;28;20580;-93
2022/10/09 01:00:35;;;;;;;13.27;7.40;;;7.70;99.90;;;;;;5098727;28;20647;-94
2022/10/09 01:03:05;;;;;;;12.30;7.40;;;7.80;99.90;;;;;;5097217;28;20316;-94
2022/10/09 01:05:43;;;;;;;15.60;7.80;;;7.70;99.90;;;;;;5098870;28;20197;-93
2022/10/09 01:08:20;;;;;;;16.77;8.13;;;7.70;99.90;;;;;;5098682;28;20201;-93
2022/10/09 01:10:59;;;;;;;12.80;7.83;;;7.70;99.90;;;;;;5097683;28;20833;-93
2022/10/09 01:13:38;;;;;;;19.57;7.83;;;7.70;99.90;;;;;;5098149;28;20223;-94
2022/10/09 01:16:10;;;;;;;11.90;7.63;;;7.70;99.90;;;;;;5096623;28;20215;-93
2022/10/09 01:18:47;;;;;;;12.70;7.53;;;7.60;99.90;;;;;;5097486;28;20205;-93
2022/10/09 01:21:21;;;;;;;10.43;7.23;;;7.70;99.90;;;;;;5097291;28;20579;-93
2022/10/09 01:24:09;;;;;;;15.10;7.27;;;7.60;99.90;;;;;;5098313;28;20594;-94
2022/10/09 01:27:00;;;;;;;16.83;7.90;;;7.70;99.90;;;;;;5099987;28;20201;-93
2022/10/09 01:29:33;;;;;;;17.20;7.87;;;7.70;99.90;;;;;;5100664;28;20225;-94
2022/10/09 01:32:09;;;;;;;13.57;7.90;;;7.70;99.90;;;;;;5099003;28;20201;-94
2022/10/09 01:35:08;;;;;;;11.47;7.07;;;7.70;99.90;;;;;;5099901;28;20223;-95
2022/10/09 01:37:39;;;;;;;16.93;7.53;;;7.70;99.90;;;;;;5098979;28;20553;-95
2022/10/09 01:40:08;;;;;;;15.77;7.70;;;7.70;99.90;;;;;;5097475;28;20216;-95
2022/10/09 01:42:48;;;;;;;14.87;8.00;;;7.70;99.90;;;;;;5096396;28;20228;-94
2022/10/09 01:45:20;;;;;;;12.43;7.87;;;7.60;99.90;;;;;;5097018;28;20208;-93
2022/10/09 01:47:48;;;;;;;19.70;7.63;;;7.50;99.90;;;;;;5097263;28;20698;-93
2022/10/09 01:50:32;;;;;;;14.77;7.90;;;7.50;99.90;;;;;;5096691;28;20209;-94
2022/10/09 01:53:07;;;;;;;17.27;7.90;;;7.50;99.90;;;;;;5097118;28;20211;-95
2022/10/09 01:55:43;;;;;;;13.47;7.73;;;7.50;99.90;;;;;;5098542;28;20200;-95
2022/10/09 01:58:29;;;;;;;15.40;7.10;;;7.50;99.90;;;;;;5097473;28;20201;-94
2022/10/09 02:01:01;;;;;;;10.27;7.57;;;7.50;99.90;;;;;;5097274;28;20240;-94
2022/10/09 02:03:31;;;;;;;13.33;7.93;;;7.50;99.90;;;;;;5097963;28;20696;-93
2022/10/09 02:06:06;;;;;;;14.80;7.80;;;7.40;99.90;;;;;;5100064;28;20201;-94
2022/10/09 02:08:39;;;;;;;12.80;7.17;;;7.40;99.90;;;;;;5097584;28;20204;-94
2022/10/09 02:11:14;;;;;;;17.60;8.13;;;7.50;99.90;;;;;;5096775;28;20292;-93
2022/10/09 02:13:44;;;;;;;13.43;8.40;;;7.50;99.90;;;;;;5096920;28;20223;-94
2022/10/09 02:16:20;;;;;;;14.30;8.03;;;7.50;99.90;;;;;;5096886;28;20200;-95
2022/10/09 02:18:57;;;;;;;13.47;7.60;;;7.40;99.90;;;;;;5096489;28;20204;-94
2022/10/09 02:21:38;;;;;;;14.43;7.43;;;7.50;99.90;;;;;;5097478;28;20641;-94
2022/10/09 02:24:14;;;;;;;18.47;7.97;;;7.40;99.90;;;;;;5096780;28;20240;-95
2022/10/09 02:26:45;;;;;;;15.47;7.07;;;7.40;99.90;;;;;;5095310;28;20200;-94
2022/10/09 02:29:22;;;;;;;11.60;7.20;;;7.40;99.90;;;;;;5096033;28;20201;-94
2022/10/09 02:31:54;;;;;;;12.17;7.03;;;7.40;99.90;;;;;;5095841;28;20287;-94
2022/10/09 02:34:33;;;;;;;15.93;7.60;;;7.40;99.90;;;;;;5096105;28;20211;-94
2022/10/09 02:37:01;;;;;;;11.77;6.57;;;7.30;99.90;;;;;;5096434;28;20211;-94
2022/10/09 02:39:47;;;;;;;10.17;6.87;;;7.30;99.90;;;;;;5096037;28;20204;-94
2022/10/09 02:42:20;;;;;;;12.10;7.13;;;7.30;99.90;;;;;;5096042;28;20193;-95
2022/10/09 02:44:49;;;;;;;12.23;6.77;;;7.20;99.90;;;;;;5095740;28;20209;-94
2022/10/09 02:47:19;;;;;;;9.77;6.90;;;7.30;99.90;;;;;;5095836;28;20212;-93
2022/10/09 02:49:47;;;;;;;11.90;6.77;;;7.20;99.90;;;;;;5095893;28;20208;-94
2022/10/09 02:52:17;;;;;;;11.17;6.57;;;7.20;99.90;;;;;;5095629;28;20200;-95
2022/10/09 02:54:47;;;;;;;11.90;7.40;;;7.30;99.90;;;;;;5095611;28;20690;-94
2022/10/09 02:57:19;;;;;;;12.63;6.97;;;7.20;99.90;;;;;;5095282;28;20201;-93
2022/10/09 02:59:54;;;;;;;13.83;6.97;;;7.10;99.90;;;;;;5095048;28;20212;-93
2022/10/09 03:02:22;;;;;;;10.20;7.17;;;7.20;99.90;;;;;;5095397;28;20239;-94
2022/10/09 03:04:49;;;;;;;11.70;7.23;;;7.20;99.90;;;;;;5095681;28;20197;-93
2022/10/09 03:07:16;;;;;;;11.87;6.90;;;7.10;99.90;;;;;;5114968;28;20207;-94
2022/10/09 03:09:49;;;;;;;12.80;6.67;;;7.10;99.90;;;;;;5115961;28;20204;-93
2022/10/09 03:12:20;;;;;;;10.53;6.40;;;7.20;99.90;;;;;;5116969;28;20752;-94
2022/10/09 03:14:50;;;;;;;12.93;6.93;;;7.10;99.90;;;;;;5117357;28;20307;-95
2022/10/09 03:17:43;;;;;;;16.40;7.10;;;7.10;99.90;;;;;;5117142;28;20210;-93
2022/10/09 03:20:17;;;;;;;13.20;7.40;;;7.10;99.90;;;;;;5117662;28;20207;-93
2022/10/09 03:22:49;;;;;;;7.13;6.00;;;7.00;99.90;;;;;;5118458;28;20201;-94
2022/10/09 03:25:22;;;;;;;10.00;6.67;;;7.00;99.90;;;;;;5118514;28;20196;-95
2022/10/09 03:27:55;;;;;;;10.63;6.33;;;6.90;99.90;;;;;;5116937;28;20207;-94
2022/10/09 03:30:25;;;;;;;9.20;6.90;;;7.00;99.90;;;;;;5116879;28;20560;-93
2022/10/09 03:32:54;;;;;;;12.77;7.03;;;6.90;99.90;;;;;;5116769;28;20747;-94
2022/10/09 03:35:25;;;;;;;10.00;7.37;;;6.90;99.90;;;;;;5117097;28;20639;-92
2022/10/09 03:37:55;;;;;;;14.23;6.73;;;7.00;99.90;;;;;;5116866;28;20193;-93
2022/10/09 03:40:27;;;;;;;10.83;6.73;;;7.00;99.90;;;;;;5115811;28;20196;-94
2022/10/09 03:42:54;;;;;;;14.90;6.90;;;7.00;99.90;;;;;;5115226;28;20284;-93
2022/10/09 03:45:21;;;;;;;8.80;6.50;;;6.90;99.90;;;;;;5115657;28;20283;-93
2022/10/09 03:47:50;;;;;;;15.97;6.70;;;6.90;99.90;;;;;;5115363;28;20207;-93
2022/10/09 03:50:21;;;;;;;12.87;6.23;;;6.80;99.90;;;;;;5115667;28;20206;-93
2022/10/09 03:52:54;;;;;;;11.13;6.50;;;6.80;99.90;;;;;;5115554;27;20656;-95
2022/10/09 03:55:22;;;;;;;9.67;6.30;;;6.70;99.90;;;;;;5115036;28;20219;-95
2022/10/09 03:57:54;;;;;;;10.80;6.60;;;6.70;99.90;;;;;;5115469;28;20211;-94
2022/10/09 04:00:45;;;;;;;12.63;6.83;;;6.70;99.90;;;;;;5115665;28;20201;-93
2022/10/09 04:03:12;;;;;;;11.57;6.93;;;6.70;99.90;;;;;;5115298;28;20232;-93
2022/10/09 04:05:45;;;;;;;8.47;6.23;;;6.70;99.90;;;;;;5115008;28;20203;-95
2022/10/09 04:08:17;;;;;;;11.50;6.37;;;6.60;99.90;;;;;;5115124;28;20307;-93
2022/10/09 04:10:45;;;;;;;10.47;6.67;;;6.60;99.90;;;;;;5115418;28;20204;-94
2022/10/09 04:13:22;;;;;;;11.90;6.40;;;6.60;99.90;;;;;;5115488;28;20218;-92
2022/10/09 04:15:52;;;;;;;10.43;6.30;;;6.60;99.90;;;;;;5114860;28;20200;-95
2022/10/09 04:18:22;;;;;;;7.63;5.97;;;6.60;99.90;;;;;;5114808;28;20219;-93
2022/10/09 04:21:02;;;;;;;7.83;6.20;;;6.50;99.90;;;;;;5114740;28;20203;-95
2022/10/09 04:23:32;;;;;;;10.57;6.07;;;6.50;99.90;;;;;;5114877;28;20307;-95
2022/10/09 04:26:01;;;;;;;10.80;7.22;;;6.50;99.90;;;;;;5113671;28;20926;-93
2022/10/09 04:28:30;;;;;;;11.47;6.33;;;6.60;99.90;;;;;;5114739;28;20216;-94
2022/10/09 04:31:00;;;;;;;7.43;6.07;;;6.60;99.90;;;;;;5114818;28;20203;-93
2022/10/09 04:33:28;;;;;;;10.93;6.10;;;6.60;99.90;;;;;;5114797;28;20223;-94
2022/10/09 04:35:56;;;;;;;13.40;5.93;;;6.60;99.90;;;;;;5115053;28;20653;-93
2022/10/09 04:38:26;;;;;;;11.17;6.30;;;6.60;99.90;;;;;;5114797;28;20204;-94
2022/10/09 04:40:57;;;;;;;9.87;5.60;;;6.50;99.90;;;;;;5115026;28;20279;-94
2022/10/09 04:43:24;;;;;;;11.17;5.77;;;6.50;99.90;;;;;;5114623;28;20231;-93
2022/10/09 04:45:53;;;;;;;12.70;5.60;;;6.40;99.90;;;;;;5114717;28;20204;-94
2022/10/09 04:48:22;;;;;;;8.03;5.97;;;6.50;99.90;;;;;;5114525;28;20210;-95
2022/10/09 04:50:52;;;;;;;11.93;5.77;;;6.40;99.90;;;;;;5116316;27;20203;-94
2022/10/09 04:53:19;;;;;;;10.87;5.47;;;6.50;99.90;;;;;;5118960;28;20211;-93
2022/10/09 04:56:12;;;;;;;10.73;6.33;;;6.40;99.90;;;;;;5118516;28;20211;-93
2022/10/09 04:58:45;;;;;;;8.00;5.50;;;6.40;99.90;;;;;;5119008;28;20652;-94
2022/10/09 05:01:21;;;;;;;9.27;5.53;;;6.40;99.90;;;;;;5117319;28;20209;-95
2022/10/09 05:03:49;;;;;;;9.93;5.97;;;6.30;99.90;;;;;;5118017;28;20230;-95
2022/10/09 05:06:19;;;;;;;11.20;5.77;;;6.30;99.90;;;;;;5118598;28;20206;-94
2022/10/09 05:08:50;;;;;;;10.80;6.33;;;6.20;99.90;;;;;;5118509;28;20215;-94
2022/10/09 05:11:26;;;;;;;8.40;5.53;;;6.20;99.90;;;;;;5117643;28;20215;-94
2022/10/09 05:13:57;;;;;;;10.93;5.87;;;6.20;99.90;;;;;;5118576;28;20655;-96
2022/10/09 05:16:31;;;;;;;12.83;5.90;;;6.10;99.90;;;;;;5118628;28;20205;-94
2022/10/09 05:19:01;;;;;;;13.05;7.07;;;6.10;99.90;;;;;;5118053;28;20912;-95
2022/10/09 05:21:35;;;;;;;8.10;5.77;;;6.30;99.90;;;;;;5119274;28;20290;-92
2022/10/09 05:24:02;;;;;;;9.10;5.53;;;6.30;99.90;;;;;;5118323;28;20311;-94
2022/10/09 05:26:32;;;;;;;6.63;5.03;;;6.20;99.90;;;;;;5119062;28;20210;-93
2022/10/09 05:29:09;;;;;;;10.53;5.30;;;6.20;99.90;;;;;;5119027;27;20209;-93
2022/10/09 05:31:38;;;;;;;6.83;5.20;;;6.30;99.90;;;;;;5119326;28;20196;-95
2022/10/09 05:34:05;;;;;;;11.67;5.10;;;6.20;99.90;;;;;;5118760;28;20376;-94
2022/10/09 05:36:35;;;;;;;8.10;6.10;;;6.20;99.90;;;;;;5117439;28;20249;-95
2022/10/09 05:39:05;;;;;;;10.17;5.17;;;6.20;99.90;;;;;;5119071;28;20231;-94
2022/10/09 05:41:39;;;;;;;7.47;5.00;;;6.20;99.90;;;;;;5119393;28;20204;-93
2022/10/09 05:44:06;;;;;;;11.60;6.17;;;6.20;99.90;;;;;;5118809;28;20220;-94
2022/10/09 05:46:34;;;;;;;7.07;5.17;;;6.10;99.90;;;;;;5118134;28;20656;-94
2022/10/09 05:49:11;;;;;;;8.10;5.20;;;6.10;99.90;;;;;;5119164;28;20283;-94
2022/10/09 05:51:42;;;;;;;8.03;4.80;;;6.10;99.90;;;;;;5118827;28;20242;-94
2022/10/09 05:54:13;;;;;;;8.10;5.43;;;6.10;99.90;;;;;;5119019;28;20205;-93
2022/10/09 05:56:45;;;;;;;9.80;6.13;;;6.10;99.90;;;;;;5119984;28;20200;-93
2022/10/09 05:59:18;;;;;;;10.93;5.83;;;6.10;99.90;;;;;;5118894;28;20537;-95
2022/10/09 06:01:47;;;;;;;11.20;7.83;;;6.10;99.90;;;;;;5119408;28;20224;-94
2022/10/09 06:04:19;;;;;;;18.77;10.43;;;6.10;99.90;;;;;;5119235;28;20232;-94
2022/10/09 06:06:49;;;;;;;17.47;11.37;;;6.10;99.90;;;;;;5120562;28;20292;-95
2022/10/09 06:09:21;;;;;;;32.43;19.07;;;6.20;99.90;;;;;;5120597;28;20200;-94
2022/10/09 06:12:00;;;;;;;40.50;24.30;;;6.10;99.90;;;;;;5118772;28;20210;-94
2022/10/09 06:14:32;;;;;;;34.47;19.50;;;6.10;99.90;;;;;;5119134;28;20300;-95
2022/10/09 06:17:09;;;;;;;27.77;15.63;;;6.10;99.90;;;;;;5119217;28;20209;-93
2022/10/09 06:19:36;;;;;;;22.30;14.53;;;6.20;99.90;;;;;;5119130;28;20203;-94
2022/10/09 06:22:04;;;;;;;22.87;12.83;;;6.10;99.90;;;;;;5118673;28;20205;-93
2022/10/09 06:24:37;;;;;;;22.30;14.03;;;6.20;99.90;;;;;;5120707;28;20549;-94
2022/10/09 06:27:29;;;;;;;18.07;10.80;;;6.20;99.90;;;;;;5119984;27;20196;-94
2022/10/09 06:29:59;;;;;;;13.17;9.00;;;6.30;99.90;;;;;;5120019;28;20201;-95
2022/10/09 06:32:32;;;;;;;13.00;9.03;;;6.30;99.90;;;;;;5121352;28;20212;-94
2022/10/09 06:35:00;;;;;;;13.47;8.80;;;6.40;99.90;;;;;;5123034;28;20212;-94
2022/10/09 06:37:29;;;;;;;14.43;10.18;;;6.50;99.90;;;;;;5122533;28;20439;-93
2022/10/09 06:39:56;;;;;;;12.00;7.90;;;6.60;99.90;;;;;;5122141;28;20264;-93
2022/10/09 06:42:31;;;;;;;11.83;8.17;;;6.70;99.90;;;;;;5122684;28;20204;-94
2022/10/09 06:44:59;;;;;;;13.67;6.60;;;6.70;99.90;;;;;;5124807;28;20245;-93
2022/10/09 06:47:32;;;;;;;13.43;6.20;;;6.80;99.90;;;;;;5122852;28;20287;-94
2022/10/09 06:49:59;;;;;;;9.90;5.73;;;6.80;99.90;;;;;;5124781;28;20211;-93
2022/10/09 06:52:27;;;;;;;9.30;6.10;;;6.80;99.90;;;;;;5122424;28;20188;-96
2022/10/09 06:54:54;;;;;;;7.93;5.53;;;6.90;99.90;;;;;;5113766;28;20193;-94
2022/10/09 06:57:21;;;;;;;12.23;6.30;;;6.90;99.90;;;;;;5121618;27;20256;-94
2022/10/09 06:59:50;;;;;;;9.13;5.80;;;7.00;99.90;;;;;;5118262;28;20207;-94
2022/10/09 07:02:18;;;;;;;10.53;6.27;;;7.10;99.90;;;;;;5120806;27;20224;-94
2022/10/09 07:04:47;;;;;;;9.43;6.53;;;7.20;99.90;;;;;;5121529;28;20623;-94
2022/10/09 07:07:14;;;;;;;11.77;6.00;;;7.30;99.90;;;;;;5122360;28;20466;-94
2022/10/09 07:09:42;;;;;;;13.40;6.07;;;7.40;99.90;;;;;;5123515;28;20214;-93
2022/10/09 07:12:19;;;;;;;11.63;6.40;;;7.40;99.90;;;;;;5123729;28;20204;-95
2022/10/09 07:14:46;;;;;;;7.67;6.40;;;7.50;99.90;;;;;;5121663;28;20201;-94
2022/10/09 07:17:14;;;;;;;9.73;6.20;;;7.60;99.90;;;;;;5121867;28;20272;-94
2022/10/09 07:19:41;;;;;;;13.57;6.33;;;7.70;99.90;;;;;;5120967;28;20287;-94
2022/10/09 07:22:10;;;;;;;13.73;6.77;;;7.80;99.90;;;;;;5120075;28;20200;-91
2022/10/09 07:24:37;;;;;;;16.33;6.53;;;8.00;99.90;;;;;;5115503;28;20599;-91
2022/10/09 07:27:05;;;;;;;11.80;6.23;;;8.10;99.90;;;;;;5115728;28;20200;-91
2022/10/09 07:29:34;;;;;;;8.67;5.57;;;8.10;99.90;;;;;;5114727;28;20204;-91
2022/10/09 07:32:01;;;;;;;12.67;6.50;;;8.30;99.90;;;;;;5114074;28;20219;-91
2022/10/09 07:34:29;;;;;;;10.23;6.23;;;8.30;99.90;;;;;;5114807;28;20200;-89
2022/10/09 07:36:56;;;;;;;8.63;6.30;;;8.30;99.90;;;;;;5115136;28;20208;-91
2022/10/09 07:39:23;;;;;;;12.93;6.93;;;8.50;99.90;;;;;;5115566;28;20595;-93
2022/10/09 07:41:51;;;;;;;11.20;6.17;;;8.60;99.90;;;;;;5116266;28;20671;-92
2022/10/09 07:44:18;;;;;;;17.00;6.33;;;8.70;99.90;;;;;;5115129;28;20687;-91
2022/10/09 07:46:45;;;;;;;12.80;6.37;;;8.80;99.90;;;;;;5112850;28;20208;-90
2022/10/09 07:49:11;;;;;;;13.30;6.50;;;9.00;99.90;;;;;;5115144;28;20231;-88
2022/10/09 07:51:45;;;;;;;13.90;6.63;;;9.10;99.90;;;;;;5117865;28;20211;-90
2022/10/09 07:54:13;;;;;;;10.57;6.37;;;9.10;99.90;;;;;;5114482;28;20204;-91
2022/10/09 07:56:41;;;;;;;8.00;5.57;;;9.30;99.90;;;;;;5118604;28;20538;-93
2022/10/09 07:59:14;;;;;;;8.33;5.27;;;9.20;99.90;;;;;;5119762;27;20667;-95
2022/10/09 08:01:43;;;;;;;12.40;5.47;;;9.20;99.90;;;;;;5139747;28;20588;-92
2022/10/09 08:04:09;;;;;;;10.57;5.00;;;9.40;99.90;;;;;;5140542;27;20210;-90
2022/10/09 08:06:36;;;;;;;10.57;4.60;;;9.50;99.90;;;;;;5125320;28;20192;-90
2022/10/09 08:09:06;;;;;;;7.97;5.27;;;9.50;99.90;;;;;;5117190;28;20204;-90
2022/10/09 08:11:39;;;;;;;12.00;4.90;;;9.60;99.90;;;;;;5117224;28;20208;-91
2022/10/09 08:14:17;;;;;;;6.47;4.33;;;9.70;99.90;;;;;;5119780;28;20313;-91
2022/10/09 08:16:48;;;;;;;12.07;5.20;;;9.80;99.90;;;;;;5120176;28;20669;-91
2022/10/09 08:19:15;;;;;;;10.50;4.40;;;10.00;99.90;;;;;;5122234;28;20648;-91
2022/10/09 08:21:44;;;;;;;9.57;4.80;;;10.10;99.90;;;;;;5121690;28;20200;-91
2022/10/09 08:24:24;;;;;;;11.27;4.77;;;10.20;99.90;;;;;;5122024;28;20206;-89
2022/10/09 08:26:57;;;;;;;8.37;4.20;;;10.30;99.90;;;;;;5122603;28;20665;-92
2022/10/09 08:29:24;;;;;;;8.80;4.37;;;10.40;99.90;;;;;;5121503;28;20192;-92
2022/10/09 08:31:51;;;;;;;9.77;4.50;;;10.60;99.90;;;;;;5118053;28;20196;-90
2022/10/09 08:34:18;;;;;;;7.70;4.50;;;10.70;99.90;;;;;;5121992;28;20193;-92
2022/10/09 08:36:44;;;;;;;6.47;4.20;;;10.80;99.90;;;;;;5118824;28;20197;-94
2022/10/09 08:39:13;;;;;;;10.37;5.10;;;11.00;99.90;;;;;;5118521;28;20190;-91
2022/10/09 08:41:45;;;;;;;9.43;4.80;;;11.00;99.90;;;;;;5117543;28;20436;-92
2022/10/09 08:44:18;;;;;;;7.73;4.27;;;11.20;99.90;;;;;;5118130;28;20204;-92
2022/10/09 08:47:05;;;;;;;18.67;5.03;;;11.30;99.90;;;;;;5117858;28;20214;-92
2022/10/09 08:49:41;;;;;;;7.97;4.00;;;11.50;99.90;;;;;;5118192;28;20201;-91
2022/10/09 08:52:21;;;;;;;10.63;4.37;;;11.50;99.90;;;;;;5118060;28;20197;-89
2022/10/09 08:54:48;;;;;;;4.80;3.50;;;11.50;99.90;;;;;;5116995;28;20194;-91
2022/10/09 08:57:18;;;;;;;6.83;3.90;;;11.70;99.90;;;;;;5116128;28;20200;-92
2022/10/09 08:59:45;;;;;;;6.70;4.10;;;11.90;99.90;;;;;;5117786;28;20733;-92
2022/10/09 09:02:29;;;;;;;8.53;5.03;;;11.80;99.90;;;;;;5116857;28;20218;-91
2022/10/09 09:05:08;;;;;;;8.63;4.47;;;11.90;99.90;;;;;;5115034;28;20444;-91
2022/10/09 09:07:40;;;;;;;5.67;3.00;;;12.20;99.90;;;;;;5111830;28;20210;-91
2022/10/09 09:10:19;;;;;;;7.50;3.20;;;12.30;99.90;;;;;;5116924;28;20204;-93
2022/10/09 09:12:53;;;;;;;8.93;3.80;;;12.50;99.90;;;;;;5116168;28;20196;-92
2022/10/09 09:15:38;;;;;;;5.67;3.23;;;12.70;99.90;;;;;;5114771;28;20207;-89
2022/10/09 09:18:20;;;;;;;5.07;2.90;;;12.80;99.90;;;;;;5118628;28;20203;-92
2022/10/09 09:20:52;;;;;;;5.80;3.20;;;13.00;99.90;;;;;;5117078;28;20248;-86
2022/10/09 09:23:23;;;;;;;7.37;3.40;;;13.10;99.90;;;;;;5117489;28;20207;-91
2022/10/09 09:25:50;;;;;;;6.80;2.53;;;13.20;99.90;;;;;;5116883;28;20208;-87
2022/10/09 09:28:25;;;;;;;5.93;2.97;;;13.30;99.90;;;;;;5117021;27;20204;-91
2022/10/09 09:30:56;;;;;;;5.53;2.77;;;13.40;99.90;;;;;;5116607;28;20256;-88
2022/10/09 09:33:29;;;;;;;5.20;2.67;;;13.50;99.90;;;;;;5116257;28;20209;-90
2022/10/09 09:36:07;;;;;;;5.13;2.30;;;13.70;99.90;;;;;;5116466;28;20199;-86
2022/10/09 09:38:34;;;;;;;6.87;2.40;;;13.80;99.90;;;;;;5117112;27;20200;-91
2022/10/09 09:41:01;;;;;;;5.27;2.33;;;13.80;99.90;;;;;;5116993;28;20227;-90
2022/10/09 09:43:29;;;;;;;4.13;2.17;;;13.90;99.90;;;;;;5117367;28;20188;-92
2022/10/09 09:45:57;;;;;;;4.30;2.03;;;14.00;99.90;;;;;;5123011;28;20232;-91
2022/10/09 09:48:32;;;;;;;5.75;2.33;;;14.10;99.90;;;;;;5117063;28;20422;-90
2022/10/09 09:51:00;;;;;;;4.80;2.20;;;14.30;99.90;;;;;;5116852;27;20199;-89
2022/10/09 09:53:30;;;;;;;3.73;1.67;;;14.30;99.90;;;;;;5116253;28;20656;-84
2022/10/09 09:55:57;;;;;;;6.10;2.10;;;14.40;99.90;;;;;;5116667;28;20568;-91
2022/10/09 09:58:28;;;;;;;4.13;2.23;;;14.50;99.90;;;;;;5116449;28;20185;-88
2022/10/09 10:00:59;;;;;;;5.70;2.13;;;14.40;99.90;;;;;;5116165;28;20190;-87
2022/10/09 10:03:26;;;;;;;4.23;1.80;;;14.50;99.90;;;;;;5116623;28;20273;-90
2022/10/09 10:05:54;;;;;;;5.67;2.00;;;14.60;99.90;;;;;;5116159;27;20289;-87
2022/10/09 10:08:26;;;;;;;7.33;2.20;;;14.70;99.90;;;;;;5115933;27;20193;-92
2022/10/09 10:10:55;;;;;;;5.05;2.40;;;14.80;99.90;;;;;;5115791;28;20429;-84
2022/10/09 10:13:26;;;;;;;3.00;2.00;;;14.80;99.90;;;;;;5115935;28;20198;-86
2022/10/09 10:15:57;;;;;;;2.93;1.70;;;14.80;99.90;;;;;;5115817;28;20214;-85
2022/10/09 10:18:27;;;;;;;3.10;2.10;;;15.00;99.90;;;;;;5115301;28;20213;-85
2022/10/09 10:20:55;;;;;;;3.43;1.57;;;15.10;99.90;;;;;;5116048;28;20696;-90
2022/10/09 10:23:35;;;;;;;3.37;1.60;;;15.20;99.90;;;;;;5115477;28;20569;-87
2022/10/09 10:26:07;;;;;;;4.63;2.10;;;15.30;99.90;;;;;;5115377;28;20272;-93
2022/10/09 10:28:42;;;;;;;6.43;2.27;;;15.40;99.90;;;;;;5115182;28;20196;-88
2022/10/09 10:31:19;;;;;;;4.23;1.87;;;15.50;99.90;;;;;;5115706;28;20201;-90
2022/10/09 10:33:50;;;;;;;8.63;2.30;;;15.60;99.90;;;;;;5115605;28;20239;-87
2022/10/09 10:36:17;;;;;;;3.70;1.70;;;15.70;99.90;;;;;;5115199;28;20192;-88
2022/10/09 10:38:52;;;;;;;4.93;2.00;;;15.70;99.90;;;;;;5114993;28;20295;-86
2022/10/09 10:41:24;;;;;;;4.07;1.97;;;15.90;99.90;;;;;;5116047;28;20230;-85
2022/10/09 10:43:58;;;;;;;7.23;1.93;;;15.90;99.90;;;;;;5118347;28;20277;-87
2022/10/09 10:46:31;;;;;;;4.30;1.93;;;15.80;99.90;;;;;;5114926;28;20757;-90
2022/10/09 10:48:59;;;;;;;4.10;1.60;;;15.90;99.90;;;;;;5114184;28;20200;-84
2022/10/09 10:51:50;;;;;;;5.20;2.10;;;16.00;99.90;;;;;;5115298;28;20566;-89
2022/10/09 10:54:35;;;;;;;4.57;1.97;;;16.20;99.90;;;;;;5115396;28;20245;-85
2022/10/09 10:57:10;;;;;;;4.13;1.90;;;16.10;99.90;;;;;;5114952;28;20232;-87
2022/10/09 10:59:42;;;;;;;3.80;1.80;;;16.20;99.90;;;;;;5114710;28;20188;-89
2022/10/09 11:02:55;;;;;;;6.53;2.50;;;16.40;99.90;;;;;;5114758;28;20233;-85
2022/10/09 11:05:29;;;;;;;2.83;1.97;;;16.40;99.90;;;;;;5114605;28;20603;-83
2022/10/09 11:08:07;;;;;;;3.30;1.70;;;16.40;99.90;;;;;;5114395;28;20204;-89
2022/10/09 11:10:41;;;;;;;18.97;3.20;;;16.60;99.90;;;;;;5114346;28;20204;-93
2022/10/09 11:13:15;;;;;;;12.70;3.07;;;16.60;99.90;;;;;;5114643;28;20218;-85
2022/10/09 11:15:52;;;;;;;5.17;2.20;;;16.50;99.90;;;;;;5116911;28;20204;-88
2022/10/09 11:18:39;;;;;;;5.80;2.00;;;16.50;99.90;;;;;;5114916;28;20200;-89
2022/10/09 11:21:23;;;;;;;4.03;2.00;;;16.70;99.90;;;;;;5115360;27;20195;-85
2022/10/09 11:24:02;;;;;;;2.67;1.90;;;16.80;99.90;;;;;;5116047;28;20204;-85
2022/10/09 11:26:36;;;;;;;4.03;2.10;;;16.70;99.90;;;;;;5115021;28;20679;-85
2022/10/09 11:29:09;;;;;;;4.90;2.80;;;16.80;99.90;;;;;;5117456;28;20192;-85
2022/10/09 11:31:40;;;;;;;3.60;1.97;;;16.80;99.90;;;;;;5126352;28;20204;-84
2022/10/09 11:34:14;;;;;;;3.97;2.30;;;17.00;99.90;;;;;;5126195;28;20208;-83
2022/10/09 11:36:44;;;;;;;4.67;2.50;;;17.00;99.90;;;;;;5126376;28;20202;-85
2022/10/09 11:39:16;;;;;;;4.27;2.30;;;17.00;99.90;;;;;;5129769;28;20265;-88
2022/10/09 11:41:45;;;;;;;5.85;2.70;;;17.00;99.90;;;;;;5131551;28;20427;-85
2022/10/09 11:44:39;;;;;;;6.20;2.63;;;17.10;99.90;;;;;;5132821;28;20203;-86
2022/10/09 11:47:14;;;;;;;4.77;2.17;;;17.00;99.90;;;;;;5110414;28;20263;-85
2022/10/09 11:50:06;;;;;;;5.87;2.43;;;17.10;99.90;;;;;;5127776;28;20292;-93
2022/10/09 11:52:42;;;;;;;3.53;2.43;;;17.10;99.90;;;;;;5122479;28;20292;-89
2022/10/09 11:55:18;;;;;;;5.57;2.10;;;17.20;99.90;;;;;;5121517;28;20231;-86
2022/10/09 11:57:45;;;;;;;4.07;2.07;;;17.30;99.90;;;;;;5122054;28;20233;-90
2022/10/09 12:00:12;;;;;;;6.43;2.50;;;17.40;99.90;;;;;;5121825;28;20214;-91
2022/10/09 12:02:41;;;;;;;6.22;2.30;;;17.40;99.90;;;;;;5119515;28;20424;-93
2022/10/09 12:05:36;;;;;;;6.67;2.43;;;17.40;99.90;;;;;;5118780;28;20683;-89
2022/10/09 12:08:13;;;;;;;5.47;2.27;;;17.50;99.90;;;;;;5118708;28;20196;-90
2022/10/09 12:10:46;;;;;;;4.87;2.17;;;17.40;99.90;;;;;;5118407;28;20227;-87
2022/10/09 12:13:40;;;;;;;5.07;1.97;;;17.40;99.90;;;;;;5119265;27;20207;-90
2022/10/09 12:16:10;;;;;;;3.83;2.10;;;17.50;99.90;;;;;;5119425;28;20207;-89
2022/10/09 12:18:40;;;;;;;6.07;2.27;;;17.40;99.90;;;;;;5118979;28;20202;-87
2022/10/09 12:21:21;;;;;;;3.63;2.10;;;17.40;99.90;;;;;;5119016;28;20209;-93
2022/10/09 12:23:50;;;;;;;7.03;2.17;;;17.50;99.90;;;;;;5119275;28;20204;-89
2022/10/09 12:26:20;;;;;;;4.95;2.22;;;17.80;99.90;;;;;;5121267;28;20575;-92
2022/10/09 12:28:50;;;;;;;5.30;2.07;;;17.70;99.90;;;;;;5123001;28;20203;-89
2022/10/09 12:31:21;;;;;;;8.17;2.00;;;17.60;99.90;;;;;;5118172;28;20207;-90
2022/10/09 12:33:53;;;;;;;4.23;1.70;;;17.50;99.90;;;;;;5117856;28;20195;-90
2022/10/09 12:36:25;;;;;;;8.53;2.30;;;17.60;99.90;;;;;;5118825;27;20522;-88
2022/10/09 12:38:52;;;;;;;6.97;2.40;;;17.70;99.90;;;;;;5117847;28;20215;-88
2022/10/09 12:41:23;;;;;;;3.87;1.83;;;17.70;99.90;;;;;;5117950;28;20648;-89
2022/10/09 12:43:54;;;;;;;5.47;2.00;;;17.70;99.90;;;;;;5117725;28;20229;-88
2022/10/09 12:46:32;;;;;;;7.73;2.30;;;17.80;99.90;;;;;;5117174;28;20226;-88
2022/10/09 12:49:00;;;;;;;6.20;1.73;;;17.90;99.90;;;;;;5117935;28;20194;-87
2022/10/09 12:51:30;;;;;;;5.93;2.67;;;17.90;99.90;;;;;;5117643;27;20634;-88
2022/10/09 12:53:58;;;;;;;6.50;2.10;;;18.00;99.90;;;;;;5117818;28;20209;-89
2022/10/09 12:56:29;;;;;;;3.97;1.93;;;18.20;99.90;;;;;;5117691;28;20211;-87
2022/10/09 12:58:58;;;;;;;8.80;3.43;;;18.10;99.90;;;;;;5117991;28;20556;-88
2022/10/09 13:01:26;;;;;;;3.67;2.23;;;18.10;99.90;;;;;;5117389;27;20227;-87
2022/10/09 13:03:55;;;;;;;7.70;2.10;;;18.10;99.90;;;;;;5117426;27;20569;-88
2022/10/09 13:06:24;;;;;;;5.63;1.83;;;18.10;99.90;;;;;;5117157;28;20231;-87
2022/10/09 13:08:56;;;;;;;2.60;1.50;;;18.20;99.90;;;;;;5117090;28;20201;-86
2022/10/09 13:11:29;;;;;;;3.13;1.60;;;18.10;99.90;;;;;;5116093;28;20278;-86
2022/10/09 13:13:56;;;;;;;4.73;1.60;;;18.10;99.90;;;;;;5117509;28;20569;-87
2022/10/09 13:16:24;;;;;;;2.13;1.60;;;18.20;99.90;;;;;;5116069;28;20212;-88